sensor_id;sensor_type;location;lat;lon;timestamp;temperature;humidity
54832;DHT22;40730;53.068;6.572;2023-08-20T00:02:23;15.40;99.90
54832;DHT22;40730;53.068;6.572;2023-08-20T00:04:49;15.40;99.90
54832;DHT22;40730;53.068;6.572;2023-08-20T00:07:16;15.30;99.90
54832;DHT22;40730;53.068;6.572;2023-08-20T00:09:44;15.30;99.90
54832;DHT22;40730;53.068;6.572;2023-08-20T00:12:09;15.30;99.90
54832;DHT22;40730;53.068;6.572;2023-08-20T00:14:55;15.20;99.90
54832;DHT22;40730;53.068;6.572;2023-08-20T00:17:22;15.20;99.90
54832;DHT22;40730;53.068;6.572;2023-08-20T00:19:50;15.20;99.90
54832;DHT22;40730;53.068;6.572;2023-08-20T00:22:16;15.20;99.90
54832;DHT22;40730;53.068;6.572;2023-08-20T00:24:42;15.10;99.90
54832;DHT22;40730;53.068;6.572;2023-08-20T00:27:08;15.10;99.90
54832;DHT22;40730;53.068;6.572;2023-08-20T00:29:34;15.10;99.90
54832;DHT22;40730;53.068;6.572;2023-08-20T00:32:00;15.00;99.90
54832;DHT22;40730;53.068;6.572;2023-08-20T00:34:25;15.00;99.90
54832;DHT22;40730;53.068;6.572;2023-08-20T00:36:51;15.00;99.90
54832;DHT22;40730;53.068;6.572;2023-08-20T00:39:16;15.00;99.90
54832;DHT22;40730;53.068;6.572;2023-08-20T00:41:42;15.00;99.90
54832;DHT22;40730;53.068;6.572;2023-08-20T00:44:08;15.00;99.90
54832;DHT22;40730;53.068;6.572;2023-08-20T00:46:33;14.90;99.90
54832;DHT22;40730;53.068;6.572;2023-08-20T00:48:59;14.90;99.90
54832;DHT22;40730;53.068;6.572;2023-08-20T00:51:25;14.90;99.90
54832;DHT22;40730;53.068;6.572;2023-08-20T00:53:51;14.90;99.90
54832;DHT22;40730;53.068;6.572;2023-08-20T00:56:17;14.90;99.90
54832;DHT22;40730;53.068;6.572;2023-08-20T00:58:43;14.90;99.90
54832;DHT22;40730;53.068;6.572;2023-08-20T01:01:10;14.90;99.90
54832;DHT22;40730;53.068;6.572;2023-08-20T01:03:35;14.90;99.90
54832;DHT22;40730;53.068;6.572;2023-08-20T01:08:57;15.00;99.90
54832;DHT22;40730;53.068;6.572;2023-08-20T01:11:30;14.90;99.90
54832;DHT22;40730;53.068;6.572;2023-08-20T01:13:59;14.90;99.90
54832;DHT22;40730;53.068;6.572;2023-08-20T01:16:26;14.90;99.90
54832;DHT22;40730;53.068;6.572;2023-08-20T01:18:52;14.90;99.90
54832;DHT22;40730;53.068;6.572;2023-08-20T01:21:38;14.90;99.90
54832;DHT22;40730;53.068;6.572;2023-08-20T01:27:58;14.80;99.90
54832;DHT22;40730;53.068;6.572;2023-08-20T01:30:01;14.90;99.90
54832;DHT22;40730;53.068;6.572;2023-08-20T01:32:28;14.80;99.90
54832;DHT22;40730;53.068;6.572;2023-08-20T01:34:54;14.90;99.90
54832;DHT22;40730;53.068;6.572;2023-08-20T01:37:20;14.90;99.90
54832;DHT22;40730;53.068;6.572;2023-08-20T01:39:46;14.90;99.90
54832;DHT22;40730;53.068;6.572;2023-08-20T01:42:11;14.80;99.90
54832;DHT22;40730;53.068;6.572;2023-08-20T01:44:37;14.90;99.90
54832;DHT22;40730;53.068;6.572;2023-08-20T01:47:03;14.90;99.90
54832;DHT22;40730;53.068;6.572;2023-08-20T01:49:28;14.90;99.90
54832;DHT22;40730;53.068;6.572;2023-08-20T01:51:54;14.90;99.90
54832;DHT22;40730;53.068;6.572;2023-08-20T01:54:20;14.90;99.90
54832;DHT22;40730;53.068;6.572;2023-08-20T01:56:45;14.90;99.90
54832;DHT22;40730;53.068;6.572;2023-08-20T01:59:11;14.90;99.90
54832;DHT22;40730;53.068;6.572;2023-08-20T02:01:38;14.90;99.90
54832;DHT22;40730;53.068;6.572;2023-08-20T02:04:03;14.90;99.90
54832;DHT22;40730;53.068;6.572;2023-08-20T02:06:29;14.80;99.90
54832;DHT22;40730;53.068;6.572;2023-08-20T02:08:54;14.60;99.90
54832;DHT22;40730;53.068;6.572;2023-08-20T02:11:20;14.50;99.90
54832;DHT22;40730;53.068;6.572;2023-08-20T02:13:46;14.40;99.90
54832;DHT22;40730;53.068;6.572;2023-08-20T02:16:11;14.60;99.90
54832;DHT22;40730;53.068;6.572;2023-08-20T02:18:37;14.30;99.90
54832;DHT22;40730;53.068;6.572;2023-08-20T02:21:03;14.30;99.90
54832;DHT22;40730;53.068;6.572;2023-08-20T02:23:29;14.30;99.90
54832;DHT22;40730;53.068;6.572;2023-08-20T02:25:54;14.40;99.90
54832;DHT22;40730;53.068;6.572;2023-08-20T02:28:20;14.40;99.90
54832;DHT22;40730;53.068;6.572;2023-08-20T02:30:46;14.30;99.90
54832;DHT22;40730;53.068;6.572;2023-08-20T02:33:12;14.30;99.90
54832;DHT22;40730;53.068;6.572;2023-08-20T02:35:39;14.30;99.90
54832;DHT22;40730;53.068;6.572;2023-08-20T02:38:05;14.40;99.90
54832;DHT22;40730;53.068;6.572;2023-08-20T02:40:31;14.40;99.90
54832;DHT22;40730;53.068;6.572;2023-08-20T02:42:57;14.50;99.90
54832;DHT22;40730;53.068;6.572;2023-08-20T02:45:23;14.50;99.90
54832;DHT22;40730;53.068;6.572;2023-08-20T02:47:49;14.50;99.90
54832;DHT22;40730;53.068;6.572;2023-08-20T02:50:15;14.60;99.90
54832;DHT22;40730;53.068;6.572;2023-08-20T02:52:42;14.60;99.90
54832;DHT22;40730;53.068;6.572;2023-08-20T02:55:08;14.70;99.90
54832;DHT22;40730;53.068;6.572;2023-08-20T02:57:33;14.80;99.90
54832;DHT22;40730;53.068;6.572;2023-08-20T02:59:59;14.80;99.90
54832;DHT22;40730;53.068;6.572;2023-08-20T03:02:25;15.10;99.90
54832;DHT22;40730;53.068;6.572;2023-08-20T03:04:50;14.90;99.90
54832;DHT22;40730;53.068;6.572;2023-08-20T03:07:16;14.90;99.90
54832;DHT22;40730;53.068;6.572;2023-08-20T03:09:42;14.90;99.90
54832;DHT22;40730;53.068;6.572;2023-08-20T03:12:07;14.90;99.90
54832;DHT22;40730;53.068;6.572;2023-08-20T03:14:33;14.90;99.90
54832;DHT22;40730;53.068;6.572;2023-08-20T03:16:59;14.80;99.90
54832;DHT22;40730;53.068;6.572;2023-08-20T03:19:25;14.80;99.90
54832;DHT22;40730;53.068;6.572;2023-08-20T03:21:50;14.80;99.90
54832;DHT22;40730;53.068;6.572;2023-08-20T03:24:16;14.80;99.90
54832;DHT22;40730;53.068;6.572;2023-08-20T03:26:41;14.80;99.90
54832;DHT22;40730;53.068;6.572;2023-08-20T03:29:07;14.70;99.90
54832;DHT22;40730;53.068;6.572;2023-08-20T03:31:33;14.70;99.90
54832;DHT22;40730;53.068;6.572;2023-08-20T03:33:58;14.60;99.90
54832;DHT22;40730;53.068;6.572;2023-08-20T03:36:24;14.60;99.90
54832;DHT22;40730;53.068;6.572;2023-08-20T03:38:50;14.70;99.90
54832;DHT22;40730;53.068;6.572;2023-08-20T03:41:15;14.50;99.90
54832;DHT22;40730;53.068;6.572;2023-08-20T03:43:41;14.50;99.90
54832;DHT22;40730;53.068;6.572;2023-08-20T03:46:06;14.50;99.90
54832;DHT22;40730;53.068;6.572;2023-08-20T03:48:32;14.40;99.90
54832;DHT22;40730;53.068;6.572;2023-08-20T03:50:57;14.40;99.90
54832;DHT22;40730;53.068;6.572;2023-08-20T03:53:23;14.40;99.90
54832;DHT22;40730;53.068;6.572;2023-08-20T03:55:49;14.40;99.90
54832;DHT22;40730;53.068;6.572;2023-08-20T03:58:15;14.40;99.90
54832;DHT22;40730;53.068;6.572;2023-08-20T04:00:40;14.40;99.90
54832;DHT22;40730;53.068;6.572;2023-08-20T04:03:06;14.40;99.90
54832;DHT22;40730;53.068;6.572;2023-08-20T04:05:38;14.40;99.90
54832;DHT22;40730;53.068;6.572;2023-08-20T04:08:05;14.30;99.90
54832;DHT22;40730;53.068;6.572;2023-08-20T04:10:31;14.40;99.90
54832;DHT22;40730;53.068;6.572;2023-08-20T04:12:57;14.40;99.90
54832;DHT22;40730;53.068;6.572;2023-08-20T04:15:23;14.40;99.90
54832;DHT22;40730;53.068;6.572;2023-08-20T04:17:49;14.40;99.90
54832;DHT22;40730;53.068;6.572;2023-08-20T04:20:15;14.40;99.90
54832;DHT22;40730;53.068;6.572;2023-08-20T04:22:41;14.40;99.90
54832;DHT22;40730;53.068;6.572;2023-08-20T04:25:07;14.40;99.90
54832;DHT22;40730;53.068;6.572;2023-08-20T04:27:33;14.30;99.90
54832;DHT22;40730;53.068;6.572;2023-08-20T04:29:59;14.20;99.90
54832;DHT22;40730;53.068;6.572;2023-08-20T04:32:25;14.20;99.90
54832;DHT22;40730;53.068;6.572;2023-08-20T04:34:50;14.20;99.90
54832;DHT22;40730;53.068;6.572;2023-08-20T04:37:19;14.10;99.90
54832;DHT22;40730;53.068;6.572;2023-08-20T04:39:44;14.20;99.90
54832;DHT22;40730;53.068;6.572;2023-08-20T04:42:10;14.20;99.90
54832;DHT22;40730;53.068;6.572;2023-08-20T04:44:36;14.20;99.90
54832;DHT22;40730;53.068;6.572;2023-08-20T04:47:01;14.10;99.90
54832;DHT22;40730;53.068;6.572;2023-08-20T04:49:27;14.20;99.90
54832;DHT22;40730;53.068;6.572;2023-08-20T04:51:54;14.20;99.90
54832;DHT22;40730;53.068;6.572;2023-08-20T04:54:20;14.10;99.90
54832;DHT22;40730;53.068;6.572;2023-08-20T04:56:46;14.10;99.90
54832;DHT22;40730;53.068;6.572;2023-08-20T04:59:11;14.10;99.90
54832;DHT22;40730;53.068;6.572;2023-08-20T05:01:38;14.10;99.90
54832;DHT22;40730;53.068;6.572;2023-08-20T05:04:04;14.20;99.90
54832;DHT22;40730;53.068;6.572;2023-08-20T05:06:29;14.30;99.90
54832;DHT22;40730;53.068;6.572;2023-08-20T05:08:55;14.30;99.90
54832;DHT22;40730;53.068;6.572;2023-08-20T05:11:21;14.30;99.90
54832;DHT22;40730;53.068;6.572;2023-08-20T05:13:49;14.40;99.90
54832;DHT22;40730;53.068;6.572;2023-08-20T05:16:14;14.30;99.90
54832;DHT22;40730;53.068;6.572;2023-08-20T05:18:40;14.30;99.90
54832;DHT22;40730;53.068;6.572;2023-08-20T05:21:06;14.30;99.90
54832;DHT22;40730;53.068;6.572;2023-08-20T05:23:31;14.30;99.90
54832;DHT22;40730;53.068;6.572;2023-08-20T05:25:57;14.40;99.90
54832;DHT22;40730;53.068;6.572;2023-08-20T05:28:22;14.50;99.90
54832;DHT22;40730;53.068;6.572;2023-08-20T05:30:57;14.50;99.90
54832;DHT22;40730;53.068;6.572;2023-08-20T05:33:23;14.60;99.90
54832;DHT22;40730;53.068;6.572;2023-08-20T05:35:49;14.70;99.90
54832;DHT22;40730;53.068;6.572;2023-08-20T05:38:15;14.80;99.90
54832;DHT22;40730;53.068;6.572;2023-08-20T05:40:41;14.80;99.90
54832;DHT22;40730;53.068;6.572;2023-08-20T05:43:07;14.90;99.90
54832;DHT22;40730;53.068;6.572;2023-08-20T05:45:32;15.00;99.90
54832;DHT22;40730;53.068;6.572;2023-08-20T05:47:58;15.10;99.90
54832;DHT22;40730;53.068;6.572;2023-08-20T05:50:23;15.20;99.90
54832;DHT22;40730;53.068;6.572;2023-08-20T05:52:49;15.30;99.90
54832;DHT22;40730;53.068;6.572;2023-08-20T05:55:15;15.40;99.90
54832;DHT22;40730;53.068;6.572;2023-08-20T05:57:41;15.40;99.90
54832;DHT22;40730;53.068;6.572;2023-08-20T06:00:09;15.50;99.90
54832;DHT22;40730;53.068;6.572;2023-08-20T06:02:35;15.60;99.90
54832;DHT22;40730;53.068;6.572;2023-08-20T06:05:00;15.70;99.90
54832;DHT22;40730;53.068;6.572;2023-08-20T06:07:26;15.70;99.90
54832;DHT22;40730;53.068;6.572;2023-08-20T06:09:52;15.80;99.90
54832;DHT22;40730;53.068;6.572;2023-08-20T06:12:17;15.90;99.90
54832;DHT22;40730;53.068;6.572;2023-08-20T06:14:43;16.00;99.90
54832;DHT22;40730;53.068;6.572;2023-08-20T06:17:09;16.20;99.90
54832;DHT22;40730;53.068;6.572;2023-08-20T06:19:34;16.30;99.90
54832;DHT22;40730;53.068;6.572;2023-08-20T06:22:00;16.40;99.90
54832;DHT22;40730;53.068;6.572;2023-08-20T06:24:26;16.50;99.90
54832;DHT22;40730;53.068;6.572;2023-08-20T06:26:52;16.70;99.90
54832;DHT22;40730;53.068;6.572;2023-08-20T06:29:17;16.90;99.90
54832;DHT22;40730;53.068;6.572;2023-08-20T06:31:43;17.00;99.90
54832;DHT22;40730;53.068;6.572;2023-08-20T06:34:09;17.20;99.90
54832;DHT22;40730;53.068;6.572;2023-08-20T06:36:35;17.30;99.90
54832;DHT22;40730;53.068;6.572;2023-08-20T06:39:01;17.50;99.90
54832;DHT22;40730;53.068;6.572;2023-08-20T06:41:27;17.60;99.90
54832;DHT22;40730;53.068;6.572;2023-08-20T06:43:52;17.70;99.90
54832;DHT22;40730;53.068;6.572;2023-08-20T06:46:18;17.90;99.90
54832;DHT22;40730;53.068;6.572;2023-08-20T06:48:43;18.00;99.90
54832;DHT22;40730;53.068;6.572;2023-08-20T06:51:13;18.10;99.90
54832;DHT22;40730;53.068;6.572;2023-08-20T06:53:39;18.10;99.90
54832;DHT22;40730;53.068;6.572;2023-08-20T06:56:07;18.20;99.90
54832;DHT22;40730;53.068;6.572;2023-08-20T06:58:34;18.30;99.90
54832;DHT22;40730;53.068;6.572;2023-08-20T07:00:59;18.50;99.90
54832;DHT22;40730;53.068;6.572;2023-08-20T07:03:42;18.60;99.90
54832;DHT22;40730;53.068;6.572;2023-08-20T07:06:10;18.70;99.90
54832;DHT22;40730;53.068;6.572;2023-08-20T07:08:36;18.90;99.90
54832;DHT22;40730;53.068;6.572;2023-08-20T07:11:04;19.10;99.90
54832;DHT22;40730;53.068;6.572;2023-08-20T07:13:30;19.20;99.90
54832;DHT22;40730;53.068;6.572;2023-08-20T07:15:55;19.30;99.90
54832;DHT22;40730;53.068;6.572;2023-08-20T07:18:21;19.50;99.90
54832;DHT22;40730;53.068;6.572;2023-08-20T07:20:47;19.60;99.90
54832;DHT22;40730;53.068;6.572;2023-08-20T07:23:12;19.80;99.90
54832;DHT22;40730;53.068;6.572;2023-08-20T07:25:39;19.90;99.90
54832;DHT22;40730;53.068;6.572;2023-08-20T07:28:06;20.00;99.90
54832;DHT22;40730;53.068;6.572;2023-08-20T07:30:32;20.20;99.90
54832;DHT22;40730;53.068;6.572;2023-08-20T07:32:58;20.30;99.90
54832;DHT22;40730;53.068;6.572;2023-08-20T07:35:24;20.40;99.90
54832;DHT22;40730;53.068;6.572;2023-08-20T07:37:50;20.60;99.90
54832;DHT22;40730;53.068;6.572;2023-08-20T07:40:16;20.80;99.90
54832;DHT22;40730;53.068;6.572;2023-08-20T07:42:42;20.90;99.90
54832;DHT22;40730;53.068;6.572;2023-08-20T07:45:08;21.00;99.90
54832;DHT22;40730;53.068;6.572;2023-08-20T07:47:38;21.10;99.90
54832;DHT22;40730;53.068;6.572;2023-08-20T07:50:05;21.20;99.90
54832;DHT22;40730;53.068;6.572;2023-08-20T07:52:32;21.30;99.90
54832;DHT22;40730;53.068;6.572;2023-08-20T07:54:58;21.40;99.90
54832;DHT22;40730;53.068;6.572;2023-08-20T07:57:23;21.60;99.90
54832;DHT22;40730;53.068;6.572;2023-08-20T07:59:52;21.70;99.90
54832;DHT22;40730;53.068;6.572;2023-08-20T08:02:18;21.70;99.90
54832;DHT22;40730;53.068;6.572;2023-08-20T08:04:44;21.90;99.90
54832;DHT22;40730;53.068;6.572;2023-08-20T08:07:10;22.00;99.90
54832;DHT22;40730;53.068;6.572;2023-08-20T08:09:36;22.30;99.90
54832;DHT22;40730;53.068;6.572;2023-08-20T08:12:03;22.40;99.90
54832;DHT22;40730;53.068;6.572;2023-08-20T08:14:28;22.50;99.90
54832;DHT22;40730;53.068;6.572;2023-08-20T08:16:54;22.60;99.90
54832;DHT22;40730;53.068;6.572;2023-08-20T08:19:20;22.60;99.90
54832;DHT22;40730;53.068;6.572;2023-08-20T08:21:46;22.70;99.90
54832;DHT22;40730;53.068;6.572;2023-08-20T08:24:12;22.80;99.90
54832;DHT22;40730;53.068;6.572;2023-08-20T08:26:38;23.00;99.90
54832;DHT22;40730;53.068;6.572;2023-08-20T08:29:05;23.10;99.90
54832;DHT22;40730;53.068;6.572;2023-08-20T08:31:32;23.20;99.90
54832;DHT22;40730;53.068;6.572;2023-08-20T08:33:57;23.40;99.90
54832;DHT22;40730;53.068;6.572;2023-08-20T08:36:23;23.50;99.90
54832;DHT22;40730;53.068;6.572;2023-08-20T08:38:52;23.50;99.90
54832;DHT22;40730;53.068;6.572;2023-08-20T08:41:21;23.70;99.90
54832;DHT22;40730;53.068;6.572;2023-08-20T08:43:48;23.80;99.90
54832;DHT22;40730;53.068;6.572;2023-08-20T08:46:15;23.90;99.90
54832;DHT22;40730;53.068;6.572;2023-08-20T08:48:42;24.10;99.90
54832;DHT22;40730;53.068;6.572;2023-08-20T08:51:08;24.30;99.90
54832;DHT22;40730;53.068;6.572;2023-08-20T08:53:35;24.40;99.90
54832;DHT22;40730;53.068;6.572;2023-08-20T08:56:01;24.50;99.90
54832;DHT22;40730;53.068;6.572;2023-08-20T08:58:28;24.70;99.90
54832;DHT22;40730;53.068;6.572;2023-08-20T09:00:54;24.90;99.90
54832;DHT22;40730;53.068;6.572;2023-08-20T09:03:20;25.00;99.90
54832;DHT22;40730;53.068;6.572;2023-08-20T09:05:54;25.20;99.90
54832;DHT22;40730;53.068;6.572;2023-08-20T09:08:27;25.20;99.90
54832;DHT22;40730;53.068;6.572;2023-08-20T09:10:57;25.30;99.90
54832;DHT22;40730;53.068;6.572;2023-08-20T09:13:40;25.60;99.90
54832;DHT22;40730;53.068;6.572;2023-08-20T09:16:08;25.80;99.90
54832;DHT22;40730;53.068;6.572;2023-08-20T09:18:38;26.00;99.90
54832;DHT22;40730;53.068;6.572;2023-08-20T09:21:10;26.20;99.90
54832;DHT22;40730;53.068;6.572;2023-08-20T09:23:38;26.20;99.90
54832;DHT22;40730;53.068;6.572;2023-08-20T09:26:05;25.80;99.90
54832;DHT22;40730;53.068;6.572;2023-08-20T09:28:45;25.50;99.90
54832;DHT22;40730;53.068;6.572;2023-08-20T09:31:11;25.60;99.90
54832;DHT22;40730;53.068;6.572;2023-08-20T09:33:51;25.50;99.90
54832;DHT22;40730;53.068;6.572;2023-08-20T09:36:18;25.60;99.90
54832;DHT22;40730;53.068;6.572;2023-08-20T09:38:44;25.90;99.90
54832;DHT22;40730;53.068;6.572;2023-08-20T09:41:09;26.20;99.90
54832;DHT22;40730;53.068;6.572;2023-08-20T09:43:38;26.40;99.90
54832;DHT22;40730;53.068;6.572;2023-08-20T09:46:05;26.40;99.90
54832;DHT22;40730;53.068;6.572;2023-08-20T09:48:35;26.60;99.90
54832;DHT22;40730;53.068;6.572;2023-08-20T09:51:11;26.80;99.90
54832;DHT22;40730;53.068;6.572;2023-08-20T09:53:51;26.70;99.90
54832;DHT22;40730;53.068;6.572;2023-08-20T09:56:25;27.00;99.90
54832;DHT22;40730;53.068;6.572;2023-08-20T09:58:53;27.20;99.90
54832;DHT22;40730;53.068;6.572;2023-08-20T10:01:19;27.20;99.90
54832;DHT22;40730;53.068;6.572;2023-08-20T10:03:45;27.30;99.90
54832;DHT22;40730;53.068;6.572;2023-08-20T10:06:11;27.50;99.90
54832;DHT22;40730;53.068;6.572;2023-08-20T10:08:38;27.90;99.90
54832;DHT22;40730;53.068;6.572;2023-08-20T10:11:04;27.60;99.90
54832;DHT22;40730;53.068;6.572;2023-08-20T10:13:30;27.20;99.90
54832;DHT22;40730;53.068;6.572;2023-08-20T10:15:56;26.90;99.90
54832;DHT22;40730;53.068;6.572;2023-08-20T10:18:22;27.00;99.90
54832;DHT22;40730;53.068;6.572;2023-08-20T10:20:51;27.10;99.90
54832;DHT22;40730;53.068;6.572;2023-08-20T10:23:20;27.50;99.90
54832;DHT22;40730;53.068;6.572;2023-08-20T10:25:48;27.80;99.90
54832;DHT22;40730;53.068;6.572;2023-08-20T10:28:24;28.20;99.40
54832;DHT22;40730;53.068;6.572;2023-08-20T10:31:05;28.50;98.90
54832;DHT22;40730;53.068;6.572;2023-08-20T10:36:18;28.80;97.90
54832;DHT22;40730;53.068;6.572;2023-08-20T10:38:49;29.00;97.90
54832;DHT22;40730;53.068;6.572;2023-08-20T10:41:15;29.20;98.80
54832;DHT22;40730;53.068;6.572;2023-08-20T10:43:47;29.40;97.60
54832;DHT22;40730;53.068;6.572;2023-08-20T10:46:20;29.60;97.00
54832;DHT22;40730;53.068;6.572;2023-08-20T10:48:57;29.60;97.00
54832;DHT22;40730;53.068;6.572;2023-08-20T10:51:38;29.70;96.10
54832;DHT22;40730;53.068;6.572;2023-08-20T10:54:06;29.80;96.70
54832;DHT22;40730;53.068;6.572;2023-08-20T10:56:46;29.70;95.40
54832;DHT22;40730;53.068;6.572;2023-08-20T10:59:28;29.30;95.90
54832;DHT22;40730;53.068;6.572;2023-08-20T11:01:56;29.50;97.20
54832;DHT22;40730;53.068;6.572;2023-08-20T11:04:24;29.70;95.60
54832;DHT22;40730;53.068;6.572;2023-08-20T11:06:55;29.60;95.40
54832;DHT22;40730;53.068;6.572;2023-08-20T11:09:28;29.60;95.10
54832;DHT22;40730;53.068;6.572;2023-08-20T11:11:54;29.70;94.80
54832;DHT22;40730;53.068;6.572;2023-08-20T11:14:21;29.90;94.70
54832;DHT22;40730;53.068;6.572;2023-08-20T11:16:47;30.30;94.10
54832;DHT22;40730;53.068;6.572;2023-08-20T11:19:14;30.40;93.40
54832;DHT22;40730;53.068;6.572;2023-08-20T11:21:42;30.30;93.40
54832;DHT22;40730;53.068;6.572;2023-08-20T11:24:09;30.00;94.20
54832;DHT22;40730;53.068;6.572;2023-08-20T11:26:35;30.30;93.30
54832;DHT22;40730;53.068;6.572;2023-08-20T11:29:05;30.40;92.20
54832;DHT22;40730;53.068;6.572;2023-08-20T11:31:31;30.30;91.10
54832;DHT22;40730;53.068;6.572;2023-08-20T11:33:57;30.40;92.40
54832;DHT22;40730;53.068;6.572;2023-08-20T11:36:23;30.20;91.00
54832;DHT22;40730;53.068;6.572;2023-08-20T11:38:50;30.20;91.60
54832;DHT22;40730;53.068;6.572;2023-08-20T11:41:18;30.40;90.50
54832;DHT22;40730;53.068;6.572;2023-08-20T11:43:44;30.60;91.60
54832;DHT22;40730;53.068;6.572;2023-08-20T11:46:14;30.90;90.40
54832;DHT22;40730;53.068;6.572;2023-08-20T11:51:34;30.60;91.20
54832;DHT22;40730;53.068;6.572;2023-08-20T11:54:00;30.50;90.80
54832;DHT22;40730;53.068;6.572;2023-08-20T11:56:27;30.70;90.70
54832;DHT22;40730;53.068;6.572;2023-08-20T11:58:52;31.00;85.30
54832;DHT22;40730;53.068;6.572;2023-08-20T12:01:19;31.20;84.80
54832;DHT22;40730;53.068;6.572;2023-08-20T12:03:45;31.40;85.20
54832;DHT22;40730;53.068;6.572;2023-08-20T12:06:21;31.60;84.50
54832;DHT22;40730;53.068;6.572;2023-08-20T12:08:48;31.50;81.10
54832;DHT22;40730;53.068;6.572;2023-08-20T12:11:13;31.20;80.60
54832;DHT22;40730;53.068;6.572;2023-08-20T12:13:40;31.40;80.80
54832;DHT22;40730;53.068;6.572;2023-08-20T12:16:06;31.60;80.40
54832;DHT22;40730;53.068;6.572;2023-08-20T12:18:32;31.80;77.90
54832;DHT22;40730;53.068;6.572;2023-08-20T12:20:58;32.00;75.70
54832;DHT22;40730;53.068;6.572;2023-08-20T12:23:23;32.00;78.50
54832;DHT22;40730;53.068;6.572;2023-08-20T12:25:52;31.80;77.40
54832;DHT22;40730;53.068;6.572;2023-08-20T12:28:18;32.10;78.70
54832;DHT22;40730;53.068;6.572;2023-08-20T12:30:44;32.30;76.10
54832;DHT22;40730;53.068;6.572;2023-08-20T12:33:11;32.60;74.70
54832;DHT22;40730;53.068;6.572;2023-08-20T12:35:36;32.60;73.40
54832;DHT22;40730;53.068;6.572;2023-08-20T12:38:03;32.60;72.30
54832;DHT22;40730;53.068;6.572;2023-08-20T12:40:29;32.10;75.70
54832;DHT22;40730;53.068;6.572;2023-08-20T12:42:55;31.80;76.50
54832;DHT22;40730;53.068;6.572;2023-08-20T12:45:21;32.20;77.20
54832;DHT22;40730;53.068;6.572;2023-08-20T12:47:46;32.40;74.50
54832;DHT22;40730;53.068;6.572;2023-08-20T12:50:12;32.70;74.20
54832;DHT22;40730;53.068;6.572;2023-08-20T12:52:40;32.90;75.50
54832;DHT22;40730;53.068;6.572;2023-08-20T12:55:05;33.00;73.10
54832;DHT22;40730;53.068;6.572;2023-08-20T12:57:34;33.10;75.10
54832;DHT22;40730;53.068;6.572;2023-08-20T13:00:02;33.20;74.20
54832;DHT22;40730;53.068;6.572;2023-08-20T13:02:32;33.10;73.40
54832;DHT22;40730;53.068;6.572;2023-08-20T13:04:58;33.00;73.90
54832;DHT22;40730;53.068;6.572;2023-08-20T13:07:24;32.80;73.20
54832;DHT22;40730;53.068;6.572;2023-08-20T13:09:50;31.90;74.10
54832;DHT22;40730;53.068;6.572;2023-08-20T13:12:18;31.40;75.70
54832;DHT22;40730;53.068;6.572;2023-08-20T13:14:44;31.10;75.80
54832;DHT22;40730;53.068;6.572;2023-08-20T13:17:10;30.40;76.00
54832;DHT22;40730;53.068;6.572;2023-08-20T13:19:36;29.90;77.00
54832;DHT22;40730;53.068;6.572;2023-08-20T13:22:01;30.20;77.10
54832;DHT22;40730;53.068;6.572;2023-08-20T13:24:27;30.50;75.60
54832;DHT22;40730;53.068;6.572;2023-08-20T13:26:52;30.40;77.80
54832;DHT22;40730;53.068;6.572;2023-08-20T13:29:18;30.10;79.20
54832;DHT22;40730;53.068;6.572;2023-08-20T13:31:44;30.10;78.90
54832;DHT22;40730;53.068;6.572;2023-08-20T13:34:09;29.70;77.90
54832;DHT22;40730;53.068;6.572;2023-08-20T13:36:35;29.10;80.80
54832;DHT22;40730;53.068;6.572;2023-08-20T13:39:00;28.50;80.80
54832;DHT22;40730;53.068;6.572;2023-08-20T13:41:27;28.00;85.70
54832;DHT22;40730;53.068;6.572;2023-08-20T13:43:53;27.60;88.50
54832;DHT22;40730;53.068;6.572;2023-08-20T13:46:18;27.30;91.10
54832;DHT22;40730;53.068;6.572;2023-08-20T13:48:44;27.00;92.50
54832;DHT22;40730;53.068;6.572;2023-08-20T13:51:10;26.70;93.40
54832;DHT22;40730;53.068;6.572;2023-08-20T13:53:35;26.50;94.60
54832;DHT22;40730;53.068;6.572;2023-08-20T13:56:01;26.30;94.50
54832;DHT22;40730;53.068;6.572;2023-08-20T13:58:27;26.30;95.30
54832;DHT22;40730;53.068;6.572;2023-08-20T14:00:53;26.10;96.30
54832;DHT22;40730;53.068;6.572;2023-08-20T14:03:18;26.10;97.40
54832;DHT22;40730;53.068;6.572;2023-08-20T14:05:44;26.00;97.80
54832;DHT22;40730;53.068;6.572;2023-08-20T14:08:11;25.90;97.90
54832;DHT22;40730;53.068;6.572;2023-08-20T14:10:36;25.70;97.90
54832;DHT22;40730;53.068;6.572;2023-08-20T14:13:02;25.60;98.20
54832;DHT22;40730;53.068;6.572;2023-08-20T14:15:28;25.50;98.40
54832;DHT22;40730;53.068;6.572;2023-08-20T14:17:54;25.30;99.30
54832;DHT22;40730;53.068;6.572;2023-08-20T14:20:19;25.10;99.90
54832;DHT22;40730;53.068;6.572;2023-08-20T14:22:45;25.20;99.90
54832;DHT22;40730;53.068;6.572;2023-08-20T14:25:10;25.30;99.60
54832;DHT22;40730;53.068;6.572;2023-08-20T14:27:36;25.10;98.90
54832;DHT22;40730;53.068;6.572;2023-08-20T14:30:02;25.00;99.40
54832;DHT22;40730;53.068;6.572;2023-08-20T14:32:28;25.00;99.90
54832;DHT22;40730;53.068;6.572;2023-08-20T14:34:53;25.10;99.90
54832;DHT22;40730;53.068;6.572;2023-08-20T14:37:19;25.10;99.30
54832;DHT22;40730;53.068;6.572;2023-08-20T14:39:45;25.00;98.70
54832;DHT22;40730;53.068;6.572;2023-08-20T14:42:11;25.10;99.30
54832;DHT22;40730;53.068;6.572;2023-08-20T14:44:37;25.10;99.60
54832;DHT22;40730;53.068;6.572;2023-08-20T14:47:04;25.00;99.70
54832;DHT22;40730;53.068;6.572;2023-08-20T14:49:30;25.10;99.90
54832;DHT22;40730;53.068;6.572;2023-08-20T14:51:55;25.00;99.20
54832;DHT22;40730;53.068;6.572;2023-08-20T14:54:21;24.90;99.80
54832;DHT22;40730;53.068;6.572;2023-08-20T14:56:47;24.80;99.90
54832;DHT22;40730;53.068;6.572;2023-08-20T14:59:12;24.90;99.60
54832;DHT22;40730;53.068;6.572;2023-08-20T15:01:38;24.90;98.80
54832;DHT22;40730;53.068;6.572;2023-08-20T15:04:04;24.80;99.00
54832;DHT22;40730;53.068;6.572;2023-08-20T15:06:30;25.00;99.30
54832;DHT22;40730;53.068;6.572;2023-08-20T15:08:55;25.20;99.90
54832;DHT22;40730;53.068;6.572;2023-08-20T15:11:21;25.10;98.50
54832;DHT22;40730;53.068;6.572;2023-08-20T15:13:46;25.00;97.80
54832;DHT22;40730;53.068;6.572;2023-08-20T15:16:12;25.00;98.50
54832;DHT22;40730;53.068;6.572;2023-08-20T15:18:38;24.90;98.70
54832;DHT22;40730;53.068;6.572;2023-08-20T15:21:03;24.60;99.10
54832;DHT22;40730;53.068;6.572;2023-08-20T15:23:29;24.40;99.60
54832;DHT22;40730;53.068;6.572;2023-08-20T15:25:56;24.40;99.90
54832;DHT22;40730;53.068;6.572;2023-08-20T15:28:22;24.20;99.90
54832;DHT22;40730;53.068;6.572;2023-08-20T15:30:52;24.10;99.90
54832;DHT22;40730;53.068;6.572;2023-08-20T15:33:18;24.10;99.90
54832;DHT22;40730;53.068;6.572;2023-08-20T15:35:44;24.50;99.90
54832;DHT22;40730;53.068;6.572;2023-08-20T15:38:10;24.80;99.90
54832;DHT22;40730;53.068;6.572;2023-08-20T15:40:39;24.90;99.90